Terminal Aerodrome Forecast
Issued by NWS

Home | Current Version | Previous Version | Text Only | Print | Product List | Glossary On
Versions: 1 2 3 4 5 6 7 8 9 10 11 12 13 14 15 16 17 18 19 20 21 22 23 24 25 26
000
FTUS42 KTAE 050500
TAFABY
TAF
KABY 050520Z 0506/0606 21005KT 6SM BR BKN015
     FM050700 21004KT 1SM BR OVC003
     FM051600 26009KT 4SM -RA BR OVC008
     FM052000 33011KT P6SM -RA OVC012
     FM060100 35012KT P6SM OVC035=

USA.gov is the U.S. government's official web portal to all federal, state and local government web resources and services.